Time;durP1;ratioP1;P1;durP2;ratioP2;P2;SDS_P1;SDS_P2;PMS_P1;PMS_P2;Temp;Humidity;BMP_temperature;BMP_pressure;BME280_temperature;BME280_humidity;BME280_pressure;Samples;Min_cycle;Max_cycle;Signal;HPM_P1;HPM_P2
2022/11/13 00:00:18;;;;;;;6.30;5.73;;;;;;;7.08;88.36;101794.16;5062204;28;20215;-77
2022/11/13 00:02:46;;;;;;;5.30;4.90;;;;;;;7.05;88.12;101796.66;5063458;28;20213;-77
2022/11/13 00:05:14;;;;;;;5.10;4.70;;;;;;;7.07;88.18;101797.56;5064280;28;20201;-77
2022/11/13 00:07:41;;;;;;;6.10;5.57;;;;;;;7.16;87.54;101818.50;5064304;28;20194;-78
2022/11/13 00:10:08;;;;;;;6.50;5.90;;;;;;;7.16;86.61;101839.28;5063357;28;20201;-78
2022/11/13 00:12:34;;;;;;;8.93;8.17;;;;;;;7.16;86.84;101842.75;5066954;28;20694;-78
2022/11/13 00:15:01;;;;;;;10.83;9.87;;;;;;;6.97;86.21;101853.66;5065259;28;20209;-77
2022/11/13 00:17:27;;;;;;;9.20;8.13;;;;;;;6.99;86.57;101841.56;5064117;28;20582;-78
2022/11/13 00:19:54;;;;;;;10.87;9.80;;;;;;;7.07;86.22;101852.09;5065011;28;20246;-78
2022/11/13 00:24:57;;;;;;;11.40;10.40;;;;;;;6.95;86.76;101845.81;5039017;23;20237;-85
2022/11/13 00:27:23;;;;;;;11.80;10.90;;;;;;;6.88;86.94;101848.31;5017776;28;20210;-85
2022/11/13 00:29:50;;;;;;;12.63;11.60;;;;;;;6.89;86.84;101842.25;5017792;28;20716;-81
2022/11/13 00:32:16;;;;;;;14.30;12.97;;;;;;;6.87;87.14;101829.22;5018248;28;20222;-85
2022/11/13 00:34:43;;;;;;;12.83;11.73;;;;;;;6.85;87.16;101822.28;5017336;28;20227;-84
2022/11/13 00:37:09;;;;;;;11.57;10.67;;;;;;;6.78;87.70;101810.00;5017371;28;20688;-84
2022/11/13 00:39:35;;;;;;;13.53;12.43;;;;;;;6.73;87.24;101802.16;5017970;28;20210;-85
2022/11/13 00:42:07;;;;;;;11.90;10.77;;;;;;;6.79;87.44;101797.06;5017599;28;20199;-84
2022/11/13 00:44:34;;;;;;;11.27;10.17;;;;;;;6.75;86.98;101800.47;5018270;28;20233;-83
2022/11/13 00:47:00;;;;;;;11.70;10.57;;;;;;;6.73;87.14;101800.44;5017905;28;20206;-84
2022/11/13 00:49:27;;;;;;;12.00;9.87;;;;;;;6.73;88.10;101792.63;5017686;28;20222;-85
2022/11/13 00:51:53;;;;;;;10.17;9.40;;;;;;;6.69;87.48;101787.38;5017140;28;20709;-84
2022/11/13 00:54:20;;;;;;;10.97;10.00;;;;;;;6.71;87.66;101786.56;5018394;28;20737;-83
2022/11/13 00:56:46;;;;;;;10.30;9.47;;;;;;;6.73;87.47;101781.41;5018711;28;20211;-84
2022/11/13 00:59:14;;;;;;;11.23;10.30;;;;;;;6.72;87.80;101777.94;5018099;28;20631;-84
2022/11/13 01:01:40;;;;;;;11.90;10.93;;;;;;;6.70;88.39;101771.84;5017690;28;20584;-84
2022/11/13 01:04:07;;;;;;;10.23;9.43;;;;;;;6.73;88.25;101763.22;5018159;28;20233;-84
2022/11/13 01:06:33;;;;;;;11.00;9.93;;;;;;;6.67;87.92;101766.59;5018599;28;20214;-84
2022/11/13 01:09:00;;;;;;;10.73;9.83;;;;;;;6.64;88.16;101761.34;5018810;28;20273;-84
2022/11/13 01:11:29;;;;;;;10.37;9.57;;;;;;;6.63;87.58;101764.78;5018198;28;20214;-84
2022/11/13 01:13:56;;;;;;;10.83;9.93;;;;;;;6.60;87.87;101775.13;5019044;28;20234;-84
2022/11/13 01:16:28;;;;;;;9.73;8.77;;;;;;;6.52;87.75;101780.16;5018580;28;20217;-84
2022/11/13 01:18:56;;;;;;;11.60;9.80;;;;;;;6.49;86.86;101787.88;5018709;28;20211;-84
2022/11/13 01:21:24;;;;;;;9.73;8.93;;;;;;;6.44;87.50;101780.84;5017631;28;20207;-84
2022/11/13 01:23:51;;;;;;;10.83;9.73;;;;;;;6.39;87.63;101772.09;5018408;28;20752;-84
2022/11/13 01:26:20;;;;;;;9.67;8.87;;;;;;;6.36;87.38;101773.78;5018647;28;20619;-84
2022/11/13 01:28:49;;;;;;;9.93;9.13;;;;;;;6.35;87.76;101776.34;5026056;28;20209;-84
2022/11/13 01:31:18;;;;;;;8.13;7.43;;;;;;;6.33;87.47;101783.22;5014610;28;20218;-84
2022/11/13 01:33:46;;;;;;;8.77;7.87;;;;;;;6.32;86.93;101789.25;5014479;28;20230;-83
2022/11/13 01:36:15;;;;;;;9.07;8.37;;;;;;;6.36;86.33;101791.94;5015209;28;20206;-81
2022/11/13 01:38:42;;;;;;;9.77;8.97;;;;;;;6.40;85.87;101807.56;5015083;28;20203;-81
2022/11/13 01:41:15;;;;;;;9.53;8.73;;;;;;;6.42;85.99;101814.53;5015166;28;20863;-84
2022/11/13 01:43:41;;;;;;;9.00;8.30;;;;;;;6.41;85.78;101830.94;5014951;28;20247;-82
2022/11/13 01:46:22;;;;;;;9.33;8.63;;;;;;;6.38;85.22;101836.03;5014300;28;20214;-84
2022/11/13 01:48:54;;;;;;;8.00;7.40;;;;;;;6.40;85.35;101847.31;5014830;28;20207;-82
2022/11/13 01:51:28;;;;;;;8.57;7.93;;;;;;;6.24;85.38;101859.09;5013994;28;20210;-82
2022/11/13 01:53:57;;;;;;;8.97;8.27;;;;;;;6.23;85.53;101831.44;5014770;28;20230;-82
2022/11/13 01:56:26;;;;;;;9.00;8.33;;;;;;;6.12;85.34;101836.34;5014578;28;20206;-81
2022/11/13 01:58:58;;;;;;;8.83;8.03;;;;;;;6.08;85.77;101836.28;5015147;28;20242;-82
2022/11/13 02:01:24;;;;;;;9.20;8.43;;;;;;;6.04;86.43;101817.19;5015082;28;20211;-81
2022/11/13 02:03:52;;;;;;;9.17;8.30;;;;;;;6.02;86.85;101789.47;5014187;28;20226;-82
2022/11/13 02:06:20;;;;;;;8.10;7.03;;;;;;;5.97;88.94;101735.84;5014822;28;20234;-85
2022/11/13 02:08:48;;;;;;;7.80;7.20;;;;;;;5.95;89.23;101703.81;5014549;28;20298;-82
2022/11/13 02:11:15;;;;;;;7.47;6.87;;;;;;;6.01;89.04;101689.25;5014302;28;20211;-82
2022/11/13 02:13:42;;;;;;;7.77;7.07;;;;;;;6.01;90.81;101646.06;5014488;28;20234;-82
2022/11/13 02:16:12;;;;;;;7.77;5.93;;;;;;;6.14;90.85;101623.81;5014971;28;20215;-83
2022/11/13 02:18:40;;;;;;;7.83;7.23;;;;;;;6.12;91.06;101623.78;5014525;28;20203;-83
2022/11/13 02:21:18;;;;;;;7.03;6.47;;;;;;;6.09;91.23;101608.19;5014081;28;20211;-82
2022/11/13 02:23:52;;;;;;;7.53;6.93;;;;;;;6.25;90.78;101598.09;5014496;28;20665;-84
2022/11/13 02:26:24;;;;;;;9.03;7.13;;;;;;;6.30;91.20;101597.34;5014708;28;20229;-83
2022/11/13 02:28:51;;;;;;;8.97;7.33;;;;;;;6.31;90.73;101608.59;5014408;28;20211;-82
2022/11/13 02:31:17;;;;;;;7.33;6.60;;;;;;;6.32;90.23;101619.00;5014523;28;20207;-84
2022/11/13 02:33:44;;;;;;;8.17;7.43;;;;;;;6.36;90.35;101638.03;5013928;28;20227;-83
2022/11/13 02:36:11;;;;;;;8.97;8.27;;;;;;;6.43;89.81;101642.50;5014205;28;20221;-84
2022/11/13 02:38:40;;;;;;;8.40;7.70;;;;;;;6.46;89.45;101654.66;5014407;28;20206;-83
2022/11/13 02:41:06;;;;;;;8.27;7.60;;;;;;;6.32;89.19;101669.94;5013828;28;20210;-84
2022/11/13 02:43:34;;;;;;;7.80;7.30;;;;;;;6.38;89.03;101671.78;5013801;28;20741;-83
2022/11/13 02:46:00;;;;;;;7.43;6.93;;;;;;;6.36;89.11;101674.34;5013975;28;20210;-82
2022/11/13 02:48:27;;;;;;;8.67;8.07;;;;;;;6.40;89.49;101670.97;5014564;28;20210;-85
2022/11/13 02:50:55;;;;;;;8.83;7.30;;;;;;;6.44;88.17;101684.88;5013910;28;20253;-83
2022/11/13 02:53:21;;;;;;;6.37;5.87;;;;;;;6.43;87.62;101707.34;5014709;28;20230;-82
2022/11/13 02:55:47;;;;;;;6.50;6.00;;;;;;;6.42;87.90;101722.88;5013804;28;20214;-83
2022/11/13 02:58:14;;;;;;;8.73;6.57;;;;;;;6.45;87.61;101730.72;5013931;28;20214;-84
2022/11/13 03:00:42;;;;;;;6.33;5.83;;;;;;;6.32;86.29;101769.41;5014313;28;20210;-82
2022/11/13 03:03:08;;;;;;;5.13;4.20;;;;;;;6.31;86.36;101779.72;5016973;28;20721;-84
2022/11/13 03:05:35;;;;;;;4.67;4.27;;;;;;;6.19;86.27;101784.66;5017584;28;20214;-85
2022/11/13 03:08:01;;;;;;;3.40;3.20;;;;;;;6.09;87.14;101776.69;5017723;28;20207;-82
2022/11/13 03:10:28;;;;;;;3.70;3.23;;;;;;;6.06;86.99;101766.25;5017479;28;20207;-82
2022/11/13 03:12:58;;;;;;;3.63;3.43;;;;;;;6.04;86.87;101772.25;5017572;28;20238;-85
2022/11/13 03:15:24;;;;;;;3.60;3.30;;;;;;;6.03;87.39;101760.16;5017505;28;20199;-85
2022/11/13 03:18:02;;;;;;;3.80;3.50;;;;;;;5.99;87.53;101748.84;5017871;28;20211;-84
2022/11/13 03:20:28;;;;;;;3.57;3.27;;;;;;;5.96;87.84;101731.47;5017707;28;20210;-84
2022/11/13 03:22:56;;;;;;;3.27;2.97;;;;;;;6.01;88.65;101713.44;5017603;28;20231;-84
2022/11/13 03:25:22;;;;;;;3.70;3.30;;;;;;;6.03;87.72;101704.00;5017456;28;20305;-82
2022/11/13 03:27:49;;;;;;;3.10;2.80;;;;;;;6.12;87.46;101718.84;5018162;28;20203;-82
2022/11/13 03:30:17;;;;;;;3.87;2.50;;;;;;;6.02;86.81;101741.09;5017497;28;20211;-85
2022/11/13 03:32:45;;;;;;;2.33;2.13;;;;;;;6.09;86.23;101743.00;5017506;28;20227;-84
2022/11/13 03:35:13;;;;;;;3.00;2.43;;;;;;;6.04;86.29;101742.00;5017751;28;20289;-84
2022/11/13 03:37:39;;;;;;;2.33;2.13;;;;;;;6.04;86.51;101757.56;5018202;28;20207;-82
2022/11/13 03:40:07;;;;;;;3.20;2.93;;;;;;;6.10;86.17;101762.88;5017602;28;20237;-85
2022/11/13 03:42:33;;;;;;;3.00;2.80;;;;;;;6.08;85.92;101761.09;5017885;28;20203;-84
2022/11/13 03:45:00;;;;;;;3.90;3.60;;;;;;;6.01;86.64;101760.09;5018039;28;20207;-84
2022/11/13 03:47:26;;;;;;;7.77;5.10;;;;;;;6.02;85.67;101779.97;5017781;28;20211;-84
2022/11/13 03:49:53;;;;;;;4.30;3.90;;;;;;;5.84;84.83;101789.91;5017504;28;20217;-83
2022/11/13 03:52:20;;;;;;;4.70;4.30;;;;;;;5.85;84.97;101789.97;5017367;28;20214;-84
2022/11/13 03:54:47;;;;;;;4.10;3.67;;;;;;;5.81;84.80;101787.25;5017555;28;20222;-82
2022/11/13 03:57:13;;;;;;;3.00;2.77;;;;;;;5.73;84.56;101789.69;5017569;28;20309;-84
2022/11/13 03:59:40;;;;;;;2.80;2.60;;;;;;;5.69;85.00;101791.34;5017235;28;20206;-82
2022/11/13 04:02:06;;;;;;;3.43;2.60;;;;;;;5.68;85.26;101783.53;5018446;28;20214;-84
2022/11/13 04:04:33;;;;;;;2.80;2.60;;;;;;;5.63;85.28;101774.75;5017460;28;20709;-84
2022/11/13 04:06:59;;;;;;;2.70;2.50;;;;;;;5.56;85.63;101771.16;5018038;28;20210;-83
2022/11/13 04:09:27;;;;;;;5.90;2.53;;;;;;;5.50;86.17;101758.94;5017969;28;20290;-82
2022/11/13 04:11:53;;;;;;;3.00;2.80;;;;;;;5.50;86.65;101739.94;5017641;28;20214;-83
2022/11/13 04:14:20;;;;;;;2.80;2.60;;;;;;;5.52;86.22;101733.94;5017394;28;20235;-83
2022/11/13 04:16:46;;;;;;;2.67;2.47;;;;;;;5.54;86.23;101721.91;5017773;28;20214;-83
2022/11/13 04:19:12;;;;;;;2.90;2.70;;;;;;;5.60;85.85;101715.13;5018193;28;20708;-84
2022/11/13 04:21:39;;;;;;;3.10;2.90;;;;;;;5.62;86.01;101729.00;5017678;28;20210;-82
2022/11/13 04:24:06;;;;;;;2.70;2.50;;;;;;;5.57;86.09;101731.50;5018046;28;20231;-84
2022/11/13 04:26:34;;;;;;;2.60;2.40;;;;;;;5.52;86.60;101725.31;5017583;28;20693;-84
2022/11/13 04:29:00;;;;;;;3.30;3.00;;;;;;;5.52;86.05;101718.41;5018079;28;20214;-85
2022/11/13 04:31:26;;;;;;;2.90;2.70;;;;;;;5.53;85.86;101715.00;5017837;28;20218;-82
2022/11/13 04:33:53;;;;;;;3.00;2.80;;;;;;;5.50;86.30;101707.16;5017767;28;20244;-83
2022/11/13 04:36:20;;;;;;;2.50;2.30;;;;;;;5.43;88.21;101683.66;5018071;28;20285;-85
2022/11/13 04:38:47;;;;;;;2.90;2.70;;;;;;;5.48;88.63;101646.69;5018151;28;20655;-82
2022/11/13 04:43:59;;;;;;;2.93;2.60;;;;;;;5.47;87.47;101651.81;5017454;28;20218;-84
2022/11/13 04:46:25;;;;;;;3.30;2.93;;;;;;;5.50;87.59;101645.00;5017684;28;20260;-85
2022/11/13 04:48:52;;;;;;;3.17;2.60;;;;;;;5.55;87.99;101635.63;5018536;28;20221;-84
2022/11/13 04:51:18;;;;;;;3.33;3.03;;;;;;;5.52;87.90;101627.78;5018040;28;20214;-84
2022/11/13 04:53:45;;;;;;;3.10;2.80;;;;;;;5.60;88.19;101627.06;5018300;28;20227;-85
2022/11/13 04:56:11;;;;;;;4.03;3.30;;;;;;;5.65;87.18;101646.16;5018084;28;20207;-85
2022/11/13 04:58:37;;;;;;;3.23;2.83;;;;;;;5.58;86.69;101671.94;5017827;28;20559;-85
2022/11/13 05:01:05;;;;;;;4.03;2.97;;;;;;;5.54;86.20;101687.38;5017795;28;20214;-85
2022/11/13 05:03:39;;;;;;;2.97;2.77;;;;;;;5.55;85.92;101684.81;5017780;28;20226;-84
2022/11/13 05:06:08;;;;;;;3.57;3.27;;;;;;;5.55;86.55;101687.41;5018136;28;20229;-84
2022/11/13 05:08:35;;;;;;;2.63;2.33;;;;;;;5.53;86.16;101691.69;5018527;28;20766;-84
2022/11/13 05:11:03;;;;;;;3.13;2.83;;;;;;;5.52;86.18;101692.50;5017930;28;20220;-84
2022/11/13 05:13:31;;;;;;;3.37;2.97;;;;;;;5.52;84.85;101714.97;5018875;28;20234;-84
2022/11/13 05:16:00;;;;;;;3.67;3.20;;;;;;;5.47;85.11;101732.09;5017520;28;20210;-85
2022/11/13 05:18:28;;;;;;;3.47;3.27;;;;;;;5.45;84.55;101744.13;5017104;28;20207;-84
2022/11/13 05:20:56;;;;;;;3.10;2.80;;;;;;;5.34;84.56;101749.06;5016225;28;20203;-84
2022/11/13 05:23:23;;;;;;;3.00;2.80;;;;;;;5.27;84.82;101737.72;5016993;28;20245;-84
2022/11/13 05:25:50;;;;;;;3.67;3.17;;;;;;;5.24;85.54;101726.41;5016505;28;20214;-84
2022/11/13 05:28:17;;;;;;;3.20;2.90;;;;;;;5.23;85.08;101720.31;5017003;28;20218;-84
2022/11/13 05:30:43;;;;;;;3.30;3.00;;;;;;;5.14;85.09;101721.00;5016583;28;20587;-83
2022/11/13 05:33:10;;;;;;;2.90;2.70;;;;;;;5.06;85.03;101721.66;5017119;28;20230;-84
2022/11/13 05:35:37;;;;;;;3.33;3.03;;;;;;;5.05;85.39;101712.13;5016964;28;20222;-84
2022/11/13 05:38:04;;;;;;;3.30;3.10;;;;;;;5.01;85.39;101711.16;5016799;28;20711;-83
2022/11/13 05:40:30;;;;;;;3.53;3.20;;;;;;;5.04;84.83;101711.25;5016233;28;20210;-84
2022/11/13 05:42:57;;;;;;;3.53;3.20;;;;;;;5.06;84.88;101716.47;5017367;28;20223;-84
2022/11/13 05:45:27;;;;;;;3.73;3.43;;;;;;;5.05;84.83;101720.75;5016878;28;20206;-84
2022/11/13 05:47:53;;;;;;;3.50;3.30;;;;;;;5.06;84.48;101719.06;5016555;28;20233;-84
2022/11/13 05:50:20;;;;;;;3.43;3.13;;;;;;;5.04;84.47;101725.91;5016390;28;20210;-84
2022/11/13 05:52:48;;;;;;;3.50;3.20;;;;;;;5.00;84.71;101730.13;5016530;28;20260;-83
2022/11/13 05:55:15;;;;;;;4.70;3.30;;;;;;;4.91;84.50;101728.19;5016978;28;20203;-84
2022/11/13 05:57:42;;;;;;;3.60;3.30;;;;;;;4.89;85.77;101701.41;5016867;28;20597;-82
2022/11/13 06:00:09;;;;;;;3.80;3.50;;;;;;;4.92;85.33;101693.72;5016491;28;20211;-82
2022/11/13 06:02:35;;;;;;;4.30;3.27;;;;;;;4.93;85.04;101686.81;5016697;28;20214;-84
2022/11/13 06:05:02;;;;;;;4.20;3.80;;;;;;;4.93;85.47;101677.34;5016627;28;20198;-82
2022/11/13 06:07:28;;;;;;;3.73;3.43;;;;;;;4.95;85.34;101680.84;5016145;28;20218;-82
2022/11/13 06:09:56;;;;;;;3.63;3.30;;;;;;;4.93;86.73;101656.66;5016417;28;20221;-84
2022/11/13 06:12:23;;;;;;;3.20;2.90;;;;;;;4.96;86.71;101633.44;5016191;28;20217;-84
2022/11/13 06:14:49;;;;;;;3.60;3.30;;;;;;;4.97;87.12;101617.09;5016559;28;20231;-82
2022/11/13 06:17:15;;;;;;;4.40;4.00;;;;;;;4.99;85.92;101617.09;5016385;28;20217;-82
2022/11/13 06:19:43;;;;;;;4.47;3.73;;;;;;;5.00;84.63;101644.75;5017185;28;20214;-84
2022/11/13 06:22:12;;;;;;;4.23;3.93;;;;;;;4.90;83.87;101682.47;5015673;28;20214;-83
2022/11/13 06:27:08;;;;;;;4.80;4.40;;;;;;;4.72;84.61;101684.59;5055284;23;20721;-80
2022/11/13 06:29:35;;;;;;;5.00;4.50;;;;;;;4.63;83.43;101698.16;5034869;28;20202;-80
2022/11/13 06:32:01;;;;;;;4.47;4.17;;;;;;;4.62;83.41;101711.03;5034429;28;20700;-80
2022/11/13 06:34:28;;;;;;;5.00;4.60;;;;;;;4.56;83.38;101712.66;5035152;28;20731;-78
2022/11/13 06:36:54;;;;;;;6.80;4.40;;;;;;;4.51;83.54;101726.28;5037364;28;20240;-79
2022/11/13 06:39:21;;;;;;;4.87;4.47;;;;;;;4.46;83.93;101725.28;5038008;28;20213;-80
2022/11/13 06:41:47;;;;;;;4.40;4.00;;;;;;;4.48;83.96;101718.44;5038270;28;20206;-79
2022/11/13 06:44:15;;;;;;;6.87;4.63;;;;;;;4.46;84.33;101720.09;5038806;28;20205;-79
2022/11/13 06:46:41;;;;;;;4.53;4.13;;;;;;;4.41;84.16;101713.94;5038296;28;20237;-80
2022/11/13 06:49:08;;;;;;;5.43;4.93;;;;;;;4.40;84.47;101719.94;5038115;28;20209;-79
2022/11/13 06:51:34;;;;;;;5.03;4.57;;;;;;;4.38;84.29;101718.22;5038688;28;20210;-80
2022/11/13 06:54:02;;;;;;;5.30;4.80;;;;;;;4.40;84.42;101715.69;5038995;28;20226;-80
2022/11/13 06:56:29;;;;;;;4.73;4.37;;;;;;;4.41;83.90;101712.25;5038520;28;20253;-80
2022/11/13 06:58:55;;;;;;;9.63;5.20;;;;;;;4.35;83.66;101722.41;5038362;28;20205;-79
2022/11/13 07:01:25;;;;;;;5.87;5.43;;;;;;;4.36;83.71;101730.22;5038468;28;20211;-80
2022/11/13 07:03:51;;;;;;;6.17;4.40;;;;;;;4.43;82.80;101744.19;5038139;28;20215;-80
2022/11/13 07:06:19;;;;;;;5.30;4.80;;;;;;;4.46;83.28;101748.53;5038025;28;20230;-80
2022/11/13 07:08:46;;;;;;;5.93;5.43;;;;;;;4.36;83.40;101752.59;5038054;28;20213;-80
2022/11/13 07:11:15;;;;;;;4.83;4.43;;;;;;;4.36;83.28;101755.16;5037879;28;20829;-79
2022/11/13 07:13:42;;;;;;;5.70;5.30;;;;;;;4.35;83.41;101763.78;5038272;28;20230;-80
2022/11/13 07:16:11;;;;;;;6.50;6.00;;;;;;;4.32;83.07;101756.81;5037360;28;20727;-80
2022/11/13 07:18:39;;;;;;;5.20;4.80;;;;;;;4.24;84.21;101749.66;5037615;28;20205;-80
2022/11/13 07:21:08;;;;;;;5.10;4.70;;;;;;;4.13;84.60;101724.41;5037214;28;20687;-81
2022/11/13 07:23:39;;;;;;;4.83;4.43;;;;;;;4.06;84.66;101709.53;5037846;28;20200;-81
2022/11/13 07:26:06;;;;;;;4.97;4.60;;;;;;;4.06;85.25;101704.38;5038069;28;20276;-79
2022/11/13 07:28:32;;;;;;;4.90;4.50;;;;;;;3.98;85.97;101683.53;5037826;28;20819;-80
2022/11/13 07:30:59;;;;;;;4.87;4.47;;;;;;;4.01;85.90;101668.94;5037173;28;20209;-80
2022/11/13 07:33:25;;;;;;;4.93;4.53;;;;;;;4.04;86.43;101653.50;5037983;28;20211;-80
2022/11/13 07:35:54;;;;;;;5.53;5.00;;;;;;;4.07;85.87;101654.47;5038039;28;20255;-80
2022/11/13 07:38:21;;;;;;;5.03;4.63;;;;;;;4.05;86.36;101648.38;5037928;28;20218;-80
2022/11/13 07:40:47;;;;;;;5.40;4.60;;;;;;;4.08;86.96;101622.63;5037274;28;20708;-80
2022/11/13 07:43:13;;;;;;;5.80;5.30;;;;;;;4.06;86.98;101618.25;5037896;28;20235;-79
2022/11/13 07:45:40;;;;;;;5.80;5.30;;;;;;;4.11;87.15;101598.59;5037738;28;20226;-81
2022/11/13 07:48:06;;;;;;;4.83;4.47;;;;;;;4.19;86.66;101602.25;5037118;28;20209;-80
2022/11/13 07:50:35;;;;;;;5.27;4.87;;;;;;;4.23;86.32;101610.97;5037697;28;20209;-80
2022/11/13 07:53:06;;;;;;;4.47;4.17;;;;;;;4.34;86.41;101610.41;5038079;28;20213;-79
2022/11/13 07:55:33;;;;;;;4.87;4.53;;;;;;;4.36;86.69;101607.81;5037598;28;20237;-80
2022/11/13 07:58:02;;;;;;;5.57;4.70;;;;;;;4.50;86.63;101608.19;5037870;28;20206;-80
2022/11/13 08:00:31;;;;;;;4.57;4.27;;;;;;;4.55;86.50;101610.03;5037399;28;20198;-81
2022/11/13 08:02:58;;;;;;;4.80;4.50;;;;;;;4.68;85.75;101620.72;5037644;28;20202;-81
2022/11/13 08:05:25;;;;;;;5.67;5.17;;;;;;;4.66;86.03;101630.09;5034651;28;20583;-78
2022/11/13 08:07:52;;;;;;;4.57;4.17;;;;;;;4.73;86.48;101619.97;5036291;28;20208;-78
2022/11/13 08:10:20;;;;;;;4.80;4.50;;;;;;;4.83;86.28;101617.59;5035216;28;20684;-78
2022/11/13 08:12:46;;;;;;;4.00;3.70;;;;;;;4.89;86.46;101613.44;5035296;28;20217;-78
2022/11/13 08:15:15;;;;;;;3.87;3.57;;;;;;;4.96;86.34;101605.00;5035388;28;20241;-78
2022/11/13 08:17:43;;;;;;;4.10;3.63;;;;;;;4.93;86.88;101612.66;5036012;28;20217;-78
2022/11/13 08:20:12;;;;;;;4.97;4.57;;;;;;;5.01;86.70;101609.38;5036350;28;20521;-78
2022/11/13 08:22:38;;;;;;;5.57;5.17;;;;;;;5.03;85.94;101623.25;5036460;28;20209;-78
2022/11/13 08:25:05;;;;;;;6.03;5.53;;;;;;;5.02;86.41;101608.56;5037509;28;20233;-80
2022/11/13 08:27:33;;;;;;;7.03;6.50;;;;;;;5.09;86.01;101611.28;5039292;28;20210;-80
2022/11/13 08:30:02;;;;;;;6.67;6.07;;;;;;;5.03;86.22;101626.69;5039000;28;20213;-80
2022/11/13 08:32:28;;;;;;;6.97;6.43;;;;;;;4.98;86.96;101631.78;5040351;28;20206;-81
2022/11/13 08:34:54;;;;;;;7.57;6.87;;;;;;;4.96;87.43;101612.75;5042697;28;20226;-80
2022/11/13 08:37:23;;;;;;;8.43;6.80;;;;;;;5.01;87.15;101611.97;5051854;28;20210;-80
2022/11/13 08:39:49;;;;;;;8.40;7.80;;;;;;;5.08;86.85;101596.63;5050574;28;20210;-80
2022/11/13 08:42:16;;;;;;;8.17;7.50;;;;;;;5.03;87.29;101600.81;5053274;28;20237;-80
2022/11/13 08:44:43;;;;;;;8.27;7.57;;;;;;;5.11;87.36;101588.03;5054364;28;20241;-80
2022/11/13 08:47:10;;;;;;;7.50;6.90;;;;;;;5.19;87.12;101581.31;5051114;28;20206;-80
2022/11/13 08:49:37;;;;;;;7.63;7.00;;;;;;;5.26;87.10;101590.97;5048028;28;20206;-81
2022/11/13 08:52:03;;;;;;;8.10;7.37;;;;;;;5.32;86.98;101588.50;5041916;28;20210;-81
2022/11/13 08:54:30;;;;;;;7.77;7.17;;;;;;;5.37;88.18;101588.59;5037131;28;20601;-80
2022/11/13 08:56:56;;;;;;;7.00;6.50;;;;;;;5.33;87.66;101579.03;5037163;28;20237;-81
2022/11/13 08:59:22;;;;;;;7.13;6.53;;;;;;;5.47;86.22;101597.44;5036586;28;20214;-80
2022/11/13 09:01:57;;;;;;;6.90;6.30;;;;;;;5.44;86.98;101598.25;5036162;28;20257;-80
2022/11/13 09:04:23;;;;;;;7.13;6.63;;;;;;;5.46;86.38;101611.25;5036858;28;20268;-80
2022/11/13 09:06:52;;;;;;;7.63;6.90;;;;;;;5.47;86.05;101621.63;5036391;28;20230;-78
2022/11/13 09:09:19;;;;;;;7.13;6.37;;;;;;;5.48;86.12;101631.13;5036282;28;20206;-80
2022/11/13 09:11:45;;;;;;;6.77;6.20;;;;;;;5.50;84.85;101645.00;5035229;28;20217;-79
2022/11/13 09:14:12;;;;;;;6.83;6.30;;;;;;;5.51;84.03;101662.28;5035294;28;20712;-78
2022/11/13 09:16:38;;;;;;;6.73;6.23;;;;;;;5.50;84.25;101682.97;5034934;28;20230;-78
2022/11/13 09:19:06;;;;;;;7.57;6.90;;;;;;;5.52;83.72;101702.88;5035405;28;20202;-78
2022/11/13 09:21:33;;;;;;;7.90;7.30;;;;;;;5.64;82.81;101719.53;5034958;28;20206;-78
2022/11/13 09:24:02;;;;;;;8.50;7.80;;;;;;;5.72;83.02;101749.06;5036221;28;20213;-78
2022/11/13 09:26:28;;;;;;;9.83;8.83;;;;;;;5.80;82.81;101759.59;5035983;28;20665;-78
2022/11/13 09:28:55;;;;;;;9.60;8.80;;;;;;;5.77;83.25;101758.69;5036051;28;20743;-79
2022/11/13 09:31:21;;;;;;;10.40;9.50;;;;;;;5.76;83.49;101740.53;5035211;28;20232;-80
2022/11/13 09:33:48;;;;;;;9.40;8.70;;;;;;;5.73;84.97;101725.78;5035846;28;20210;-79
2022/11/13 09:36:16;;;;;;;10.10;9.30;;;;;;;5.73;85.68;101686.06;5035796;28;20230;-79
2022/11/13 09:38:42;;;;;;;10.03;9.23;;;;;;;5.77;85.53;101662.84;5036051;28;20210;-79
2022/11/13 09:41:14;;;;;;;10.93;10.03;;;;;;;5.86;85.20;101649.19;5035950;28;20230;-79
2022/11/13 09:43:46;;;;;;;11.37;10.47;;;;;;;5.98;85.74;101646.00;5035994;28;20237;-80
2022/11/13 09:46:20;;;;;;;12.83;11.93;;;;;;;5.97;86.89;101618.34;5035872;28;20594;-79
2022/11/13 09:48:50;;;;;;;13.67;12.47;;;;;;;6.06;87.75;101582.22;5035890;28;20243;-79
2022/11/13 09:51:22;;;;;;;14.80;13.47;;;;;;;6.18;87.84;101563.41;5035726;28;20193;-80
2022/11/13 09:53:49;;;;;;;14.97;13.73;;;;;;;6.21;88.98;101536.69;5035808;28;20209;-79
2022/11/13 09:56:26;;;;;;;16.53;15.23;;;;;;;6.28;89.24;101508.28;5036025;28;20229;-81
2022/11/13 09:59:01;;;;;;;17.23;15.80;;;;;;;6.36;89.77;101478.16;5037046;28;20209;-81
2022/11/13 10:01:34;;;;;;;17.30;15.87;;;;;;;6.44;90.51;101465.31;5036605;28;20205;-81
2022/11/13 10:04:06;;;;;;;18.27;16.87;;;;;;;6.50;89.86;101459.31;5036446;28;20489;-81
2022/11/13 10:06:43;;;;;;;20.03;18.23;;;;;;;6.59;90.59;101441.28;5036462;28;20222;-81
2022/11/13 10:09:19;;;;;;;17.20;15.60;;;;;;;6.63;89.51;101431.84;5035575;28;20210;-80
2022/11/13 10:11:51;;;;;;;15.97;14.67;;;;;;;6.69;89.42;101444.88;5034141;28;20217;-79
2022/11/13 10:14:21;;;;;;;17.13;15.53;;;;;;;6.67;90.14;101433.63;5034770;28;20217;-79
2022/11/13 10:16:52;;;;;;;16.90;15.50;;;;;;;6.69;90.14;101424.13;5035279;28;20763;-79
2022/11/13 10:19:26;;;;;;;17.77;16.17;;;;;;;6.79;90.75;101420.78;5035006;28;20296;-80
2022/11/13 10:22:02;;;;;;;16.70;15.37;;;;;;;6.78;90.55;101424.25;5033928;28;20223;-80
2022/11/13 10:24:36;;;;;;;16.63;15.37;;;;;;;6.81;89.60;101424.28;5035112;28;20233;-79
2022/11/13 10:27:08;;;;;;;18.17;16.33;;;;;;;6.88;89.57;101443.41;5035579;28;20229;-79
2022/11/13 10:29:35;;;;;;;17.47;15.87;;;;;;;6.90;88.98;101441.72;5034632;28;20226;-80
2022/11/13 10:32:16;;;;;;;17.47;15.97;;;;;;;6.95;89.37;101455.59;5033615;28;20210;-80
2022/11/13 10:34:47;;;;;;;18.93;17.00;;;;;;;6.96;89.44;101457.34;5035023;28;20274;-78
2022/11/13 10:37:28;;;;;;;17.80;16.43;;;;;;;6.98;88.82;101471.22;5035329;28;20217;-79
2022/11/13 10:39:54;;;;;;;18.17;16.57;;;;;;;6.95;88.14;101490.19;5034659;28;20209;-79
2022/11/13 10:42:26;;;;;;;21.10;19.30;;;;;;;7.00;87.96;101505.84;5035026;28;20213;-80
2022/11/13 10:44:55;;;;;;;21.50;19.20;;;;;;;6.99;88.16;101493.72;5035264;28;20297;-80
2022/11/13 10:47:24;;;;;;;22.23;20.27;;;;;;;6.96;88.26;101498.88;5034971;28;20214;-79
2022/11/13 10:49:51;;;;;;;22.07;20.17;;;;;;;6.99;89.10;101485.06;5034708;28;20209;-79
2022/11/13 10:52:21;;;;;;;23.17;21.07;;;;;;;6.90;90.04;101473.72;5035069;28;20297;-79
2022/11/13 10:54:49;;;;;;;24.93;22.40;;;;;;;6.93;90.00;101460.75;5034850;28;20226;-79
2022/11/13 10:57:27;;;;;;;26.53;23.67;;;;;;;6.91;90.57;101448.63;5034370;28;20741;-79
2022/11/13 10:59:54;;;;;;;25.03;22.43;;;;;;;6.92;90.65;101437.41;5035011;28;20671;-79
2022/11/13 11:02:22;;;;;;;26.13;23.37;;;;;;;6.97;89.78;101443.50;5035169;28;20202;-79
2022/11/13 11:04:49;;;;;;;23.77;21.47;;;;;;;7.01;89.62;101449.63;5035152;28;20218;-79
2022/11/13 11:07:18;;;;;;;24.27;21.80;;;;;;;6.94;89.47;101436.56;5035038;28;20202;-79
2022/11/13 11:09:47;;;;;;;24.57;22.30;;;;;;;6.94;90.46;101412.34;5034967;28;20214;-79
2022/11/13 11:12:17;;;;;;;25.33;22.10;;;;;;;6.94;90.63;101412.34;5034572;28;20210;-80
2022/11/13 11:14:55;;;;;;;27.77;22.37;;;;;;;6.93;90.44;101402.78;5034752;28;20237;-79
2022/11/13 11:17:25;;;;;;;25.10;22.47;;;;;;;7.00;90.61;101393.34;5035376;28;20206;-79
2022/11/13 11:19:57;;;;;;;23.63;21.23;;;;;;;7.09;89.93;101411.63;5035153;28;20208;-79
2022/11/13 11:22:30;;;;;;;23.77;21.57;;;;;;;7.14;89.78;101407.38;5034948;28;20217;-79
2022/11/13 11:25:04;;;;;;;23.07;20.73;;;;;;;7.11;90.15;101407.31;5038612;28;20202;-79
2022/11/13 11:27:36;;;;;;;23.53;21.43;;;;;;;7.18;89.78;101418.66;5038562;28;20572;-79
2022/11/13 11:30:07;;;;;;;22.80;20.57;;;;;;;7.18;88.61;101432.50;5038204;28;20260;-79
2022/11/13 11:32:42;;;;;;;22.33;20.23;;;;;;;7.24;89.76;101424.78;5038370;28;20213;-79
2022/11/13 11:35:15;;;;;;;22.67;20.87;;;;;;;7.28;88.31;101429.16;5038228;28;20737;-80
2022/11/13 11:37:57;;;;;;;22.70;20.63;;;;;;;7.31;88.50;101434.41;5038552;28;20209;-80
2022/11/13 11:40:30;;;;;;;22.53;20.30;;;;;;;7.36;88.78;101443.09;5037816;28;20213;-79